Terminal Aerodrome Forecast
Issued by NWS

Home | Current Version | Previous Version | Text Only | Print | Product List | Glossary On
Versions: 1 2 3 4 5 6 7 8 9 10 11 12 13 14 15 16 17 18 19 20 21 22 23 24 25 26 27 28 29 30 31 32 33 34 35 36 37 38 39 40 41 42 43 44 45 46 47 48 49 50
150
FTUS41 KCTP 282338
TAFUNV
TAF
KUNV 282338Z 2900/2924 06007KT P6SM VCSH SCT025 BKN070
      TEMPO 2901/2904 2SM TSRA BR OVC035CB
     FM290700 VRB03KT 3SM BR SCT001
     FM290900 VRB02KT 1/2SM FG BKN002
     FM291400 36006KT P6SM SCT250=

USA.gov is the U.S. government's official web portal to all federal, state and local government web resources and services.